sensor_id;sensor_type;location;lat;lon;timestamp;temperature;humidity
15947;DHT22;8072;52.554;7.966;2024-03-22T00:01:46;9.60;99.90
15947;DHT22;8072;52.554;7.966;2024-03-22T00:04:15;9.70;99.90
15947;DHT22;8072;52.554;7.966;2024-03-22T00:06:42;9.70;99.90
15947;DHT22;8072;52.554;7.966;2024-03-22T00:09:09;9.70;99.90
15947;DHT22;8072;52.554;7.966;2024-03-22T00:11:35;9.70;99.90
15947;DHT22;8072;52.554;7.966;2024-03-22T00:14:02;9.70;99.90
15947;DHT22;8072;52.554;7.966;2024-03-22T00:16:28;9.70;99.90
15947;DHT22;8072;52.554;7.966;2024-03-22T00:18:54;9.70;99.90
15947;DHT22;8072;52.554;7.966;2024-03-22T00:21:21;9.70;99.90
15947;DHT22;8072;52.554;7.966;2024-03-22T00:23:48;9.70;99.90
15947;DHT22;8072;52.554;7.966;2024-03-22T00:26:14;9.70;99.90
15947;DHT22;8072;52.554;7.966;2024-03-22T00:28:39;9.80;99.90
15947;DHT22;8072;52.554;7.966;2024-03-22T00:31:05;9.70;99.90
15947;DHT22;8072;52.554;7.966;2024-03-22T00:33:31;9.80;99.90
15947;DHT22;8072;52.554;7.966;2024-03-22T00:35:57;9.70;99.90
15947;DHT22;8072;52.554;7.966;2024-03-22T00:38:23;9.80;99.90
15947;DHT22;8072;52.554;7.966;2024-03-22T00:40:49;9.70;99.90
15947;DHT22;8072;52.554;7.966;2024-03-22T00:43:14;9.80;99.90
15947;DHT22;8072;52.554;7.966;2024-03-22T00:45:40;9.80;99.90
15947;DHT22;8072;52.554;7.966;2024-03-22T00:48:07;9.80;99.90
15947;DHT22;8072;52.554;7.966;2024-03-22T00:50:32;9.80;99.90
15947;DHT22;8072;52.554;7.966;2024-03-22T00:52:59;9.80;99.90
15947;DHT22;8072;52.554;7.966;2024-03-22T00:55:25;9.80;99.90
15947;DHT22;8072;52.554;7.966;2024-03-22T00:57:51;9.80;99.90
15947;DHT22;8072;52.554;7.966;2024-03-22T01:00:17;9.80;99.90
15947;DHT22;8072;52.554;7.966;2024-03-22T01:02:43;9.90;99.90
15947;DHT22;8072;52.554;7.966;2024-03-22T01:05:10;9.90;99.90
15947;DHT22;8072;52.554;7.966;2024-03-22T01:07:37;9.90;99.90
15947;DHT22;8072;52.554;7.966;2024-03-22T01:10:04;9.90;99.90
15947;DHT22;8072;52.554;7.966;2024-03-22T01:12:30;9.90;99.90
15947;DHT22;8072;52.554;7.966;2024-03-22T01:14:56;9.90;99.90
15947;DHT22;8072;52.554;7.966;2024-03-22T01:17:22;10.00;99.90
15947;DHT22;8072;52.554;7.966;2024-03-22T01:19:48;10.00;99.90
15947;DHT22;8072;52.554;7.966;2024-03-22T01:22:14;10.00;99.90
15947;DHT22;8072;52.554;7.966;2024-03-22T01:24:42;10.00;99.90
15947;DHT22;8072;52.554;7.966;2024-03-22T01:27:08;10.00;99.90
15947;DHT22;8072;52.554;7.966;2024-03-22T01:29:34;10.00;99.90
15947;DHT22;8072;52.554;7.966;2024-03-22T01:31:59;10.00;99.90
15947;DHT22;8072;52.554;7.966;2024-03-22T01:34:25;10.00;99.90
15947;DHT22;8072;52.554;7.966;2024-03-22T01:36:51;10.10;99.90
15947;DHT22;8072;52.554;7.966;2024-03-22T01:39:18;10.10;99.90
15947;DHT22;8072;52.554;7.966;2024-03-22T01:41:47;10.10;99.90
15947;DHT22;8072;52.554;7.966;2024-03-22T01:44:13;10.10;99.90
15947;DHT22;8072;52.554;7.966;2024-03-22T01:46:40;10.10;99.90
15947;DHT22;8072;52.554;7.966;2024-03-22T01:49:07;10.10;99.90
15947;DHT22;8072;52.554;7.966;2024-03-22T01:51:33;10.10;99.90
15947;DHT22;8072;52.554;7.966;2024-03-22T01:54:01;10.10;99.90
15947;DHT22;8072;52.554;7.966;2024-03-22T01:56:27;10.10;99.90
15947;DHT22;8072;52.554;7.966;2024-03-22T01:58:56;10.10;99.90
15947;DHT22;8072;52.554;7.966;2024-03-22T02:01:23;10.20;99.90
15947;DHT22;8072;52.554;7.966;2024-03-22T02:03:49;10.20;99.90
15947;DHT22;8072;52.554;7.966;2024-03-22T02:06:15;10.20;99.90
15947;DHT22;8072;52.554;7.966;2024-03-22T02:08:40;10.20;99.90
15947;DHT22;8072;52.554;7.966;2024-03-22T02:11:08;10.10;99.90
15947;DHT22;8072;52.554;7.966;2024-03-22T02:13:35;10.20;99.90
15947;DHT22;8072;52.554;7.966;2024-03-22T02:16:04;10.20;99.90
15947;DHT22;8072;52.554;7.966;2024-03-22T02:18:30;10.10;99.90
15947;DHT22;8072;52.554;7.966;2024-03-22T02:20:57;10.10;99.90
15947;DHT22;8072;52.554;7.966;2024-03-22T02:23:33;10.10;99.90
15947;DHT22;8072;52.554;7.966;2024-03-22T02:26:03;10.20;99.90
15947;DHT22;8072;52.554;7.966;2024-03-22T02:28:29;10.20;99.90
15947;DHT22;8072;52.554;7.966;2024-03-22T02:30:56;10.20;99.90
15947;DHT22;8072;52.554;7.966;2024-03-22T02:33:24;10.20;99.90
15947;DHT22;8072;52.554;7.966;2024-03-22T02:35:50;10.20;99.90
15947;DHT22;8072;52.554;7.966;2024-03-22T02:38:17;10.20;99.90
15947;DHT22;8072;52.554;7.966;2024-03-22T02:40:43;10.20;99.90
15947;DHT22;8072;52.554;7.966;2024-03-22T02:43:09;10.30;99.90
15947;DHT22;8072;52.554;7.966;2024-03-22T02:45:36;10.30;99.90
15947;DHT22;8072;52.554;7.966;2024-03-22T02:48:02;10.30;99.90
15947;DHT22;8072;52.554;7.966;2024-03-22T02:50:27;10.30;99.90
15947;DHT22;8072;52.554;7.966;2024-03-22T02:52:53;10.30;99.90
15947;DHT22;8072;52.554;7.966;2024-03-22T02:55:19;10.30;99.90
15947;DHT22;8072;52.554;7.966;2024-03-22T02:57:44;10.30;99.90
15947;DHT22;8072;52.554;7.966;2024-03-22T03:00:10;10.30;99.90
15947;DHT22;8072;52.554;7.966;2024-03-22T03:02:36;10.30;99.90
15947;DHT22;8072;52.554;7.966;2024-03-22T03:05:02;10.30;99.90
15947;DHT22;8072;52.554;7.966;2024-03-22T03:07:28;10.30;99.90
15947;DHT22;8072;52.554;7.966;2024-03-22T03:09:54;10.40;99.90
15947;DHT22;8072;52.554;7.966;2024-03-22T03:12:20;10.40;99.90
15947;DHT22;8072;52.554;7.966;2024-03-22T03:14:46;10.40;99.90
15947;DHT22;8072;52.554;7.966;2024-03-22T03:17:11;10.40;99.90
15947;DHT22;8072;52.554;7.966;2024-03-22T03:19:37;10.40;99.90
15947;DHT22;8072;52.554;7.966;2024-03-22T03:22:04;10.40;99.90
15947;DHT22;8072;52.554;7.966;2024-03-22T03:24:30;10.40;99.90
15947;DHT22;8072;52.554;7.966;2024-03-22T03:26:56;10.40;99.90
15947;DHT22;8072;52.554;7.966;2024-03-22T03:29:22;10.40;99.90
15947;DHT22;8072;52.554;7.966;2024-03-22T03:31:47;10.40;99.90
15947;DHT22;8072;52.554;7.966;2024-03-22T03:34:15;10.40;99.90
15947;DHT22;8072;52.554;7.966;2024-03-22T03:36:43;10.40;99.90
15947;DHT22;8072;52.554;7.966;2024-03-22T03:39:09;10.50;99.90
15947;DHT22;8072;52.554;7.966;2024-03-22T03:41:35;10.40;99.90
15947;DHT22;8072;52.554;7.966;2024-03-22T03:44:01;10.40;99.90
15947;DHT22;8072;52.554;7.966;2024-03-22T03:46:28;10.40;99.90
15947;DHT22;8072;52.554;7.966;2024-03-22T03:48:54;10.50;99.90
15947;DHT22;8072;52.554;7.966;2024-03-22T03:51:20;10.50;99.90
15947;DHT22;8072;52.554;7.966;2024-03-22T03:53:47;10.50;99.90
15947;DHT22;8072;52.554;7.966;2024-03-22T03:56:12;10.50;99.90
15947;DHT22;8072;52.554;7.966;2024-03-22T03:58:38;10.50;99.90
15947;DHT22;8072;52.554;7.966;2024-03-22T04:01:10;10.40;99.90
15947;DHT22;8072;52.554;7.966;2024-03-22T04:03:35;10.40;99.90
15947;DHT22;8072;52.554;7.966;2024-03-22T04:06:02;10.40;99.90
15947;DHT22;8072;52.554;7.966;2024-03-22T04:08:32;10.40;99.90
15947;DHT22;8072;52.554;7.966;2024-03-22T04:10:58;10.50;99.90
15947;DHT22;8072;52.554;7.966;2024-03-22T04:13:25;10.50;99.90
15947;DHT22;8072;52.554;7.966;2024-03-22T04:15:52;10.50;99.90
15947;DHT22;8072;52.554;7.966;2024-03-22T04:18:18;10.50;99.90
15947;DHT22;8072;52.554;7.966;2024-03-22T04:20:53;10.60;99.90
15947;DHT22;8072;52.554;7.966;2024-03-22T04:23:20;10.60;99.90
15947;DHT22;8072;52.554;7.966;2024-03-22T04:25:57;10.50;99.90
15947;DHT22;8072;52.554;7.966;2024-03-22T04:28:25;10.60;99.90
15947;DHT22;8072;52.554;7.966;2024-03-22T04:31:02;10.60;99.90
15947;DHT22;8072;52.554;7.966;2024-03-22T04:33:28;10.60;99.90
15947;DHT22;8072;52.554;7.966;2024-03-22T04:35:55;10.70;99.90
15947;DHT22;8072;52.554;7.966;2024-03-22T04:38:25;10.60;99.90
15947;DHT22;8072;52.554;7.966;2024-03-22T04:40:51;10.70;99.90
15947;DHT22;8072;52.554;7.966;2024-03-22T04:43:17;10.70;99.90
15947;DHT22;8072;52.554;7.966;2024-03-22T04:45:44;10.70;99.90
15947;DHT22;8072;52.554;7.966;2024-03-22T04:48:12;10.70;99.90
15947;DHT22;8072;52.554;7.966;2024-03-22T04:50:39;10.70;99.90
15947;DHT22;8072;52.554;7.966;2024-03-22T04:53:05;10.70;99.90
15947;DHT22;8072;52.554;7.966;2024-03-22T04:55:32;10.60;99.90
15947;DHT22;8072;52.554;7.966;2024-03-22T04:58:00;10.70;99.90
15947;DHT22;8072;52.554;7.966;2024-03-22T05:00:27;10.70;99.90
15947;DHT22;8072;52.554;7.966;2024-03-22T05:02:53;10.70;99.90
15947;DHT22;8072;52.554;7.966;2024-03-22T05:05:20;10.70;99.90
15947;DHT22;8072;52.554;7.966;2024-03-22T05:07:46;10.80;99.90
15947;DHT22;8072;52.554;7.966;2024-03-22T05:10:13;10.80;99.90
15947;DHT22;8072;52.554;7.966;2024-03-22T05:12:39;10.80;99.90
15947;DHT22;8072;52.554;7.966;2024-03-22T05:15:06;10.70;99.90
15947;DHT22;8072;52.554;7.966;2024-03-22T05:17:32;10.80;99.90
15947;DHT22;8072;52.554;7.966;2024-03-22T05:19:59;10.80;99.90
15947;DHT22;8072;52.554;7.966;2024-03-22T05:22:25;10.80;99.90
15947;DHT22;8072;52.554;7.966;2024-03-22T05:24:51;10.80;99.90
15947;DHT22;8072;52.554;7.966;2024-03-22T05:27:17;10.80;99.90
15947;DHT22;8072;52.554;7.966;2024-03-22T05:29:43;10.90;99.90
15947;DHT22;8072;52.554;7.966;2024-03-22T05:32:09;10.80;99.90
15947;DHT22;8072;52.554;7.966;2024-03-22T05:34:35;10.90;99.90
15947;DHT22;8072;52.554;7.966;2024-03-22T05:37:02;10.90;99.90
15947;DHT22;8072;52.554;7.966;2024-03-22T05:39:28;10.90;99.90
15947;DHT22;8072;52.554;7.966;2024-03-22T05:41:54;10.90;99.90
15947;DHT22;8072;52.554;7.966;2024-03-22T05:44:22;11.00;99.90
15947;DHT22;8072;52.554;7.966;2024-03-22T05:46:47;11.00;99.90
15947;DHT22;8072;52.554;7.966;2024-03-22T05:49:13;11.00;99.90
15947;DHT22;8072;52.554;7.966;2024-03-22T05:51:39;11.10;99.90
15947;DHT22;8072;52.554;7.966;2024-03-22T05:54:05;11.10;99.90
15947;DHT22;8072;52.554;7.966;2024-03-22T05:56:31;11.10;99.90
15947;DHT22;8072;52.554;7.966;2024-03-22T05:58:56;11.10;99.90
15947;DHT22;8072;52.554;7.966;2024-03-22T06:01:22;11.20;99.90
15947;DHT22;8072;52.554;7.966;2024-03-22T06:03:48;11.20;99.90
15947;DHT22;8072;52.554;7.966;2024-03-22T06:06:14;11.20;99.90
15947;DHT22;8072;52.554;7.966;2024-03-22T06:08:40;11.20;99.90
15947;DHT22;8072;52.554;7.966;2024-03-22T06:11:07;11.20;99.90
15947;DHT22;8072;52.554;7.966;2024-03-22T06:13:34;11.20;99.90
15947;DHT22;8072;52.554;7.966;2024-03-22T06:16:01;11.20;99.90
15947;DHT22;8072;52.554;7.966;2024-03-22T06:18:27;11.30;99.90
15947;DHT22;8072;52.554;7.966;2024-03-22T06:20:53;11.20;99.90
15947;DHT22;8072;52.554;7.966;2024-03-22T06:23:21;11.30;99.90
15947;DHT22;8072;52.554;7.966;2024-03-22T06:25:54;11.30;99.90
15947;DHT22;8072;52.554;7.966;2024-03-22T06:28:21;11.30;99.90
15947;DHT22;8072;52.554;7.966;2024-03-22T06:30:47;11.30;99.90
15947;DHT22;8072;52.554;7.966;2024-03-22T06:33:12;11.30;99.90
15947;DHT22;8072;52.554;7.966;2024-03-22T06:35:39;11.30;99.90
15947;DHT22;8072;52.554;7.966;2024-03-22T06:38:04;11.30;99.90
15947;DHT22;8072;52.554;7.966;2024-03-22T06:40:31;11.30;99.90
15947;DHT22;8072;52.554;7.966;2024-03-22T06:42:56;11.30;99.90
15947;DHT22;8072;52.554;7.966;2024-03-22T06:45:22;11.40;99.90
15947;DHT22;8072;52.554;7.966;2024-03-22T06:47:48;11.40;99.90
15947;DHT22;8072;52.554;7.966;2024-03-22T06:50:13;11.40;99.90
15947;DHT22;8072;52.554;7.966;2024-03-22T06:52:39;11.40;99.90
15947;DHT22;8072;52.554;7.966;2024-03-22T06:55:05;11.50;99.90
15947;DHT22;8072;52.554;7.966;2024-03-22T06:57:32;11.40;99.90
15947;DHT22;8072;52.554;7.966;2024-03-22T06:59:59;11.40;99.90
15947;DHT22;8072;52.554;7.966;2024-03-22T07:02:26;11.40;99.90
15947;DHT22;8072;52.554;7.966;2024-03-22T07:04:52;11.40;99.90
15947;DHT22;8072;52.554;7.966;2024-03-22T07:07:19;11.50;99.90
15947;DHT22;8072;52.554;7.966;2024-03-22T07:09:44;11.40;99.90
15947;DHT22;8072;52.554;7.966;2024-03-22T07:12:11;11.40;99.90
15947;DHT22;8072;52.554;7.966;2024-03-22T07:14:40;11.50;99.90
15947;DHT22;8072;52.554;7.966;2024-03-22T07:17:06;11.50;99.90
15947;DHT22;8072;52.554;7.966;2024-03-22T07:19:32;11.50;99.90
15947;DHT22;8072;52.554;7.966;2024-03-22T07:21:58;11.40;99.90
15947;DHT22;8072;52.554;7.966;2024-03-22T07:24:25;11.40;99.90
15947;DHT22;8072;52.554;7.966;2024-03-22T07:26:51;11.40;99.90
15947;DHT22;8072;52.554;7.966;2024-03-22T07:29:17;11.40;99.90
15947;DHT22;8072;52.554;7.966;2024-03-22T07:31:43;11.40;99.90
15947;DHT22;8072;52.554;7.966;2024-03-22T07:34:09;11.40;99.90
15947;DHT22;8072;52.554;7.966;2024-03-22T07:36:38;11.30;99.90
15947;DHT22;8072;52.554;7.966;2024-03-22T07:39:04;11.30;99.90
15947;DHT22;8072;52.554;7.966;2024-03-22T07:41:33;11.30;99.90
15947;DHT22;8072;52.554;7.966;2024-03-22T07:44:00;11.30;99.90
15947;DHT22;8072;52.554;7.966;2024-03-22T07:46:26;11.20;99.90
15947;DHT22;8072;52.554;7.966;2024-03-22T07:48:52;11.20;99.90
15947;DHT22;8072;52.554;7.966;2024-03-22T07:51:18;11.20;99.90
15947;DHT22;8072;52.554;7.966;2024-03-22T07:53:44;11.20;99.90
15947;DHT22;8072;52.554;7.966;2024-03-22T07:56:10;11.20;99.90
15947;DHT22;8072;52.554;7.966;2024-03-22T07:58:36;11.20;99.90
15947;DHT22;8072;52.554;7.966;2024-03-22T08:01:02;11.20;99.90
15947;DHT22;8072;52.554;7.966;2024-03-22T08:03:27;11.20;99.90
15947;DHT22;8072;52.554;7.966;2024-03-22T08:05:53;11.20;99.90
15947;DHT22;8072;52.554;7.966;2024-03-22T08:08:19;11.20;99.90
15947;DHT22;8072;52.554;7.966;2024-03-22T08:10:45;11.20;99.90
15947;DHT22;8072;52.554;7.966;2024-03-22T08:13:10;11.20;99.90
15947;DHT22;8072;52.554;7.966;2024-03-22T08:15:36;11.20;99.90
15947;DHT22;8072;52.554;7.966;2024-03-22T08:18:02;11.20;99.90
15947;DHT22;8072;52.554;7.966;2024-03-22T08:20:28;11.20;99.90
15947;DHT22;8072;52.554;7.966;2024-03-22T08:22:54;11.20;99.90
15947;DHT22;8072;52.554;7.966;2024-03-22T08:25:20;11.20;99.90
15947;DHT22;8072;52.554;7.966;2024-03-22T08:27:46;11.30;99.90
15947;DHT22;8072;52.554;7.966;2024-03-22T08:30:13;11.30;99.90
15947;DHT22;8072;52.554;7.966;2024-03-22T08:32:39;11.30;99.90
15947;DHT22;8072;52.554;7.966;2024-03-22T08:35:05;11.30;99.90
15947;DHT22;8072;52.554;7.966;2024-03-22T08:37:36;11.40;99.90
15947;DHT22;8072;52.554;7.966;2024-03-22T08:40:02;11.40;99.90
15947;DHT22;8072;52.554;7.966;2024-03-22T08:42:30;11.40;99.90
15947;DHT22;8072;52.554;7.966;2024-03-22T08:44:55;11.40;99.90
15947;DHT22;8072;52.554;7.966;2024-03-22T08:47:21;11.40;99.90
15947;DHT22;8072;52.554;7.966;2024-03-22T08:49:47;11.50;99.90
15947;DHT22;8072;52.554;7.966;2024-03-22T08:52:12;11.60;99.90
15947;DHT22;8072;52.554;7.966;2024-03-22T08:54:38;11.60;99.90
15947;DHT22;8072;52.554;7.966;2024-03-22T08:57:04;11.50;99.90
15947;DHT22;8072;52.554;7.966;2024-03-22T08:59:30;11.50;99.90
15947;DHT22;8072;52.554;7.966;2024-03-22T09:01:57;11.50;99.90
15947;DHT22;8072;52.554;7.966;2024-03-22T09:04:23;11.50;99.90
15947;DHT22;8072;52.554;7.966;2024-03-22T09:06:48;11.50;99.90
15947;DHT22;8072;52.554;7.966;2024-03-22T09:09:15;11.50;99.90
15947;DHT22;8072;52.554;7.966;2024-03-22T09:11:42;11.50;99.90
15947;DHT22;8072;52.554;7.966;2024-03-22T09:14:08;11.60;99.90
15947;DHT22;8072;52.554;7.966;2024-03-22T09:16:34;11.60;99.90
15947;DHT22;8072;52.554;7.966;2024-03-22T09:19:00;11.60;99.90
15947;DHT22;8072;52.554;7.966;2024-03-22T09:21:25;11.60;99.90
15947;DHT22;8072;52.554;7.966;2024-03-22T09:23:51;11.60;99.90
15947;DHT22;8072;52.554;7.966;2024-03-22T09:26:17;11.70;99.90
15947;DHT22;8072;52.554;7.966;2024-03-22T09:28:46;11.80;99.90
15947;DHT22;8072;52.554;7.966;2024-03-22T09:31:11;11.70;99.90
15947;DHT22;8072;52.554;7.966;2024-03-22T09:33:37;11.80;99.90
15947;DHT22;8072;52.554;7.966;2024-03-22T09:36:03;11.80;99.90
15947;DHT22;8072;52.554;7.966;2024-03-22T09:38:29;11.80;99.90
15947;DHT22;8072;52.554;7.966;2024-03-22T09:40:55;11.80;99.90
15947;DHT22;8072;52.554;7.966;2024-03-22T09:43:21;11.80;99.90
15947;DHT22;8072;52.554;7.966;2024-03-22T09:45:48;11.80;99.90
15947;DHT22;8072;52.554;7.966;2024-03-22T09:48:19;11.80;99.90
15947;DHT22;8072;52.554;7.966;2024-03-22T09:50:48;11.80;99.90
15947;DHT22;8072;52.554;7.966;2024-03-22T09:53:21;11.70;99.90
15947;DHT22;8072;52.554;7.966;2024-03-22T09:59:10;11.70;99.90
15947;DHT22;8072;52.554;7.966;2024-03-22T10:01:36;11.70;99.90
15947;DHT22;8072;52.554;7.966;2024-03-22T10:04:05;11.70;99.90
15947;DHT22;8072;52.554;7.966;2024-03-22T10:06:31;11.70;99.90
15947;DHT22;8072;52.554;7.966;2024-03-22T10:09:00;11.70;99.90
15947;DHT22;8072;52.554;7.966;2024-03-22T10:11:27;11.70;99.90
15947;DHT22;8072;52.554;7.966;2024-03-22T10:13:53;11.70;99.90
15947;DHT22;8072;52.554;7.966;2024-03-22T10:16:23;11.70;99.90
15947;DHT22;8072;52.554;7.966;2024-03-22T10:18:49;11.70;99.90
15947;DHT22;8072;52.554;7.966;2024-03-22T10:21:18;11.70;99.90
15947;DHT22;8072;52.554;7.966;2024-03-22T10:23:45;11.70;99.90
15947;DHT22;8072;52.554;7.966;2024-03-22T10:26:14;11.60;99.90
15947;DHT22;8072;52.554;7.966;2024-03-22T10:28:46;11.60;99.90
15947;DHT22;8072;52.554;7.966;2024-03-22T10:31:13;11.50;99.90
15947;DHT22;8072;52.554;7.966;2024-03-22T10:33:41;11.50;99.90
15947;DHT22;8072;52.554;7.966;2024-03-22T10:36:09;11.50;99.90
15947;DHT22;8072;52.554;7.966;2024-03-22T10:38:39;11.40;99.90
15947;DHT22;8072;52.554;7.966;2024-03-22T10:41:06;11.30;99.90
15947;DHT22;8072;52.554;7.966;2024-03-22T10:43:32;11.40;99.90
15947;DHT22;8072;52.554;7.966;2024-03-22T10:46:01;11.40;99.90
15947;DHT22;8072;52.554;7.966;2024-03-22T10:48:30;11.30;99.90
15947;DHT22;8072;52.554;7.966;2024-03-22T10:50:59;11.30;99.90
15947;DHT22;8072;52.554;7.966;2024-03-22T10:53:26;11.20;99.90
15947;DHT22;8072;52.554;7.966;2024-03-22T10:55:54;11.10;99.90
15947;DHT22;8072;52.554;7.966;2024-03-22T10:58:24;11.10;99.90
15947;DHT22;8072;52.554;7.966;2024-03-22T11:00:54;11.10;99.90
15947;DHT22;8072;52.554;7.966;2024-03-22T11:03:24;11.00;99.90
15947;DHT22;8072;52.554;7.966;2024-03-22T11:05:54;11.10;99.90
15947;DHT22;8072;52.554;7.966;2024-03-22T11:10:50;11.00;99.90
15947;DHT22;8072;52.554;7.966;2024-03-22T11:13:17;11.00;99.90
15947;DHT22;8072;52.554;7.966;2024-03-22T11:15:43;11.00;99.90
15947;DHT22;8072;52.554;7.966;2024-03-22T11:18:09;11.00;99.90
15947;DHT22;8072;52.554;7.966;2024-03-22T11:20:38;11.00;99.90
15947;DHT22;8072;52.554;7.966;2024-03-22T11:23:04;10.90;99.90
15947;DHT22;8072;52.554;7.966;2024-03-22T11:25:34;11.00;99.90
15947;DHT22;8072;52.554;7.966;2024-03-22T11:28:00;10.90;99.90
15947;DHT22;8072;52.554;7.966;2024-03-22T11:30:32;10.90;99.90
15947;DHT22;8072;52.554;7.966;2024-03-22T11:33:01;10.90;99.90
15947;DHT22;8072;52.554;7.966;2024-03-22T11:35:27;10.90;99.90
15947;DHT22;8072;52.554;7.966;2024-03-22T11:37:53;10.80;99.90
15947;DHT22;8072;52.554;7.966;2024-03-22T11:40:19;10.90;99.90
15947;DHT22;8072;52.554;7.966;2024-03-22T11:42:47;10.90;99.90
15947;DHT22;8072;52.554;7.966;2024-03-22T11:45:17;10.90;99.90
15947;DHT22;8072;52.554;7.966;2024-03-22T11:47:46;10.90;99.90
15947;DHT22;8072;52.554;7.966;2024-03-22T11:50:13;10.90;99.90
15947;DHT22;8072;52.554;7.966;2024-03-22T11:52:42;10.90;99.90
15947;DHT22;8072;52.554;7.966;2024-03-22T11:55:10;10.80;99.90
15947;DHT22;8072;52.554;7.966;2024-03-22T11:57:36;10.80;99.90
15947;DHT22;8072;52.554;7.966;2024-03-22T12:00:04;10.80;99.90
15947;DHT22;8072;52.554;7.966;2024-03-22T12:02:38;10.80;99.90
15947;DHT22;8072;52.554;7.966;2024-03-22T12:05:05;10.80;99.90
15947;DHT22;8072;52.554;7.966;2024-03-22T12:07:31;10.80;99.90
15947;DHT22;8072;52.554;7.966;2024-03-22T12:10:00;10.80;99.90
15947;DHT22;8072;52.554;7.966;2024-03-22T12:12:26;10.70;99.90
15947;DHT22;8072;52.554;7.966;2024-03-22T12:14:52;10.70;99.90
15947;DHT22;8072;52.554;7.966;2024-03-22T12:17:18;10.70;99.90
15947;DHT22;8072;52.554;7.966;2024-03-22T12:19:44;10.70;99.90
15947;DHT22;8072;52.554;7.966;2024-03-22T12:22:10;10.60;99.90
15947;DHT22;8072;52.554;7.966;2024-03-22T12:24:36;10.60;99.90
15947;DHT22;8072;52.554;7.966;2024-03-22T12:27:02;10.60;99.90
15947;DHT22;8072;52.554;7.966;2024-03-22T12:29:28;10.60;99.90
15947;DHT22;8072;52.554;7.966;2024-03-22T12:31:54;10.60;99.90
15947;DHT22;8072;52.554;7.966;2024-03-22T12:34:19;10.60;99.90
15947;DHT22;8072;52.554;7.966;2024-03-22T12:36:45;10.60;99.90
15947;DHT22;8072;52.554;7.966;2024-03-22T12:39:11;10.60;99.90
15947;DHT22;8072;52.554;7.966;2024-03-22T12:41:37;10.60;99.90
15947;DHT22;8072;52.554;7.966;2024-03-22T12:44:03;10.60;99.90
15947;DHT22;8072;52.554;7.966;2024-03-22T12:46:29;10.60;99.90
15947;DHT22;8072;52.554;7.966;2024-03-22T12:48:55;10.70;99.90
15947;DHT22;8072;52.554;7.966;2024-03-22T12:51:21;10.70;99.90
15947;DHT22;8072;52.554;7.966;2024-03-22T12:53:47;10.70;99.90
15947;DHT22;8072;52.554;7.966;2024-03-22T12:56:12;10.70;99.90
15947;DHT22;8072;52.554;7.966;2024-03-22T12:58:38;10.70;99.90
15947;DHT22;8072;52.554;7.966;2024-03-22T13:01:05;10.70;99.90
15947;DHT22;8072;52.554;7.966;2024-03-22T13:03:32;10.70;99.90
15947;DHT22;8072;52.554;7.966;2024-03-22T13:05:58;10.70;99.90
15947;DHT22;8072;52.554;7.966;2024-03-22T13:08:24;10.70;99.90
15947;DHT22;8072;52.554;7.966;2024-03-22T13:10:49;10.70;99.90
15947;DHT22;8072;52.554;7.966;2024-03-22T13:13:15;10.70;99.90
15947;DHT22;8072;52.554;7.966;2024-03-22T13:15:45;10.70;99.90
15947;DHT22;8072;52.554;7.966;2024-03-22T13:18:12;10.80;99.90
15947;DHT22;8072;52.554;7.966;2024-03-22T13:20:38;10.70;99.90
15947;DHT22;8072;52.554;7.966;2024-03-22T13:23:04;10.70;99.90
15947;DHT22;8072;52.554;7.966;2024-03-22T13:25:30;10.70;99.90
15947;DHT22;8072;52.554;7.966;2024-03-22T13:27:56;10.70;99.90
15947;DHT22;8072;52.554;7.966;2024-03-22T13:30:22;10.70;99.90
15947;DHT22;8072;52.554;7.966;2024-03-22T13:32:48;10.70;99.90
15947;DHT22;8072;52.554;7.966;2024-03-22T13:35:14;10.70;99.90
15947;DHT22;8072;52.554;7.966;2024-03-22T13:37:42;10.70;99.90
15947;DHT22;8072;52.554;7.966;2024-03-22T13:40:08;10.70;99.90
15947;DHT22;8072;52.554;7.966;2024-03-22T13:42:35;10.70;99.90
15947;DHT22;8072;52.554;7.966;2024-03-22T13:45:00;10.70;99.90
15947;DHT22;8072;52.554;7.966;2024-03-22T13:47:27;10.70;99.90
15947;DHT22;8072;52.554;7.966;2024-03-22T13:49:53;10.70;99.90
15947;DHT22;8072;52.554;7.966;2024-03-22T13:52:19;10.80;99.90
15947;DHT22;8072;52.554;7.966;2024-03-22T13:54:48;10.70;99.90
15947;DHT22;8072;52.554;7.966;2024-03-22T13:57:15;10.80;99.90
15947;DHT22;8072;52.554;7.966;2024-03-22T13:59:41;10.80;99.90
15947;DHT22;8072;52.554;7.966;2024-03-22T14:02:07;10.70;99.90
15947;DHT22;8072;52.554;7.966;2024-03-22T14:04:36;10.70;99.90
15947;DHT22;8072;52.554;7.966;2024-03-22T14:07:02;10.70;99.90
15947;DHT22;8072;52.554;7.966;2024-03-22T14:09:31;10.80;99.90
15947;DHT22;8072;52.554;7.966;2024-03-22T14:11:57;10.80;99.90
15947;DHT22;8072;52.554;7.966;2024-03-22T14:14:28;10.80;99.90
15947;DHT22;8072;52.554;7.966;2024-03-22T14:16:54;10.80;99.90
15947;DHT22;8072;52.554;7.966;2024-03-22T14:19:20;10.70;99.90
15947;DHT22;8072;52.554;7.966;2024-03-22T14:21:46;10.70;99.90
15947;DHT22;8072;52.554;7.966;2024-03-22T14:24:13;10.70;99.90
15947;DHT22;8072;52.554;7.966;2024-03-22T14:26:39;10.70;99.90
15947;DHT22;8072;52.554;7.966;2024-03-22T14:29:09;10.70;99.90
15947;DHT22;8072;52.554;7.966;2024-03-22T14:31:35;10.70;99.90
15947;DHT22;8072;52.554;7.966;2024-03-22T14:34:01;10.70;99.90
15947;DHT22;8072;52.554;7.966;2024-03-22T14:36:27;10.80;99.90
15947;DHT22;8072;52.554;7.966;2024-03-22T14:38:53;10.70;99.90
15947;DHT22;8072;52.554;7.966;2024-03-22T14:41:19;10.70;99.90
15947;DHT22;8072;52.554;7.966;2024-03-22T14:43:48;10.70;99.90
15947;DHT22;8072;52.554;7.966;2024-03-22T14:46:14;10.70;99.90
15947;DHT22;8072;52.554;7.966;2024-03-22T14:48:41;10.80;99.90
15947;DHT22;8072;52.554;7.966;2024-03-22T14:51:07;10.80;99.90
15947;DHT22;8072;52.554;7.966;2024-03-22T14:53:34;10.80;99.90
15947;DHT22;8072;52.554;7.966;2024-03-22T14:56:01;10.90;99.90
15947;DHT22;8072;52.554;7.966;2024-03-22T14:58:49;10.90;99.90
15947;DHT22;8072;52.554;7.966;2024-03-22T15:01:15;10.90;99.90
15947;DHT22;8072;52.554;7.966;2024-03-22T15:03:41;10.90;99.90
15947;DHT22;8072;52.554;7.966;2024-03-22T15:06:07;10.90;99.90
15947;DHT22;8072;52.554;7.966;2024-03-22T15:08:33;10.80;99.90
15947;DHT22;8072;52.554;7.966;2024-03-22T15:10:59;10.90;99.90
15947;DHT22;8072;52.554;7.966;2024-03-22T15:13:24;10.90;99.90
15947;DHT22;8072;52.554;7.966;2024-03-22T15:15:57;10.90;99.90
15947;DHT22;8072;52.554;7.966;2024-03-22T15:18:24;10.90;99.90
15947;DHT22;8072;52.554;7.966;2024-03-22T15:20:52;11.00;99.90
15947;DHT22;8072;52.554;7.966;2024-03-22T15:23:18;10.90;99.90
15947;DHT22;8072;52.554;7.966;2024-03-22T15:25:46;10.90;99.90
15947;DHT22;8072;52.554;7.966;2024-03-22T15:28:13;11.00;99.90
15947;DHT22;8072;52.554;7.966;2024-03-22T15:30:40;11.00;99.90
15947;DHT22;8072;52.554;7.966;2024-03-22T15:33:09;11.00;99.90
15947;DHT22;8072;52.554;7.966;2024-03-22T15:35:35;11.10;99.90
15947;DHT22;8072;52.554;7.966;2024-03-22T15:38:02;11.10;99.90
15947;DHT22;8072;52.554;7.966;2024-03-22T15:40:32;10.80;99.90
15947;DHT22;8072;52.554;7.966;2024-03-22T15:42:59;10.40;99.90
15947;DHT22;8072;52.554;7.966;2024-03-22T15:45:26;10.20;99.90
15947;DHT22;8072;52.554;7.966;2024-03-22T15:47:52;9.90;99.90
15947;DHT22;8072;52.554;7.966;2024-03-22T15:50:18;9.70;99.90